sensor_id;sensor_type;location;lat;lon;timestamp;P1;durP1;ratioP1;P2;durP2;ratioP2
3311;SDS011;1668;49.648;8.570;2023-03-05T00:01:59;37.07;;;15.87;;
3311;SDS011;1668;49.648;8.570;2023-03-05T00:04:26;36.50;;;17.60;;
3311;SDS011;1668;49.648;8.570;2023-03-05T00:06:52;39.97;;;18.27;;
3311;SDS011;1668;49.648;8.570;2023-03-05T00:09:19;35.23;;;16.80;;
3311;SDS011;1668;49.648;8.570;2023-03-05T00:11:46;37.57;;;17.27;;
3311;SDS011;1668;49.648;8.570;2023-03-05T00:14:15;39.57;;;16.93;;
3311;SDS011;1668;49.648;8.570;2023-03-05T00:16:41;40.70;;;17.07;;
3311;SDS011;1668;49.648;8.570;2023-03-05T00:19:09;43.63;;;17.20;;
3311;SDS011;1668;49.648;8.570;2023-03-05T00:21:37;35.57;;;17.60;;
3311;SDS011;1668;49.648;8.570;2023-03-05T00:24:05;39.40;;;17.30;;
3311;SDS011;1668;49.648;8.570;2023-03-05T00:26:36;36.60;;;17.07;;
3311;SDS011;1668;49.648;8.570;2023-03-05T00:29:04;36.40;;;17.23;;
3311;SDS011;1668;49.648;8.570;2023-03-05T00:31:33;42.70;;;17.67;;
3311;SDS011;1668;49.648;8.570;2023-03-05T00:34:02;40.70;;;18.07;;
3311;SDS011;1668;49.648;8.570;2023-03-05T00:36:30;35.37;;;16.90;;
3311;SDS011;1668;49.648;8.570;2023-03-05T00:38:57;31.13;;;15.93;;
3311;SDS011;1668;49.648;8.570;2023-03-05T00:41:24;35.00;;;16.70;;
3311;SDS011;1668;49.648;8.570;2023-03-05T00:43:52;33.30;;;16.00;;
3311;SDS011;1668;49.648;8.570;2023-03-05T00:46:19;30.87;;;16.37;;
3311;SDS011;1668;49.648;8.570;2023-03-05T00:48:47;38.23;;;15.90;;
3311;SDS011;1668;49.648;8.570;2023-03-05T00:51:14;38.40;;;17.17;;
3311;SDS011;1668;49.648;8.570;2023-03-05T00:53:41;34.90;;;17.43;;
3311;SDS011;1668;49.648;8.570;2023-03-05T00:56:07;32.20;;;15.93;;
3311;SDS011;1668;49.648;8.570;2023-03-05T00:58:34;36.87;;;16.60;;
3311;SDS011;1668;49.648;8.570;2023-03-05T01:01:01;31.60;;;15.90;;
3311;SDS011;1668;49.648;8.570;2023-03-05T01:03:30;32.50;;;17.37;;
3311;SDS011;1668;49.648;8.570;2023-03-05T01:05:59;36.43;;;16.83;;
3311;SDS011;1668;49.648;8.570;2023-03-05T01:08:28;36.57;;;16.80;;
3311;SDS011;1668;49.648;8.570;2023-03-05T01:10:55;35.37;;;16.10;;
3311;SDS011;1668;49.648;8.570;2023-03-05T01:13:22;34.53;;;16.53;;
3311;SDS011;1668;49.648;8.570;2023-03-05T01:15:49;37.23;;;17.63;;
3311;SDS011;1668;49.648;8.570;2023-03-05T01:18:16;36.90;;;17.50;;
3311;SDS011;1668;49.648;8.570;2023-03-05T01:20:44;38.63;;;17.20;;
3311;SDS011;1668;49.648;8.570;2023-03-05T01:23:13;37.20;;;16.80;;
3311;SDS011;1668;49.648;8.570;2023-03-05T01:25:41;37.50;;;17.40;;
3311;SDS011;1668;49.648;8.570;2023-03-05T01:28:07;38.80;;;18.00;;
3311;SDS011;1668;49.648;8.570;2023-03-05T01:30:34;41.00;;;18.30;;
3311;SDS011;1668;49.648;8.570;2023-03-05T01:33:01;40.60;;;18.60;;
3311;SDS011;1668;49.648;8.570;2023-03-05T01:35:28;40.40;;;19.97;;
3311;SDS011;1668;49.648;8.570;2023-03-05T01:37:55;44.40;;;20.20;;
3311;SDS011;1668;49.648;8.570;2023-03-05T01:40:24;40.63;;;20.27;;
3311;SDS011;1668;49.648;8.570;2023-03-05T01:42:56;45.80;;;20.10;;
3311;SDS011;1668;49.648;8.570;2023-03-05T01:45:25;44.37;;;21.03;;
3311;SDS011;1668;49.648;8.570;2023-03-05T01:47:52;43.77;;;21.57;;
3311;SDS011;1668;49.648;8.570;2023-03-05T01:50:20;50.23;;;22.23;;
3311;SDS011;1668;49.648;8.570;2023-03-05T01:52:51;45.13;;;19.17;;
3311;SDS011;1668;49.648;8.570;2023-03-05T01:55:24;43.93;;;20.50;;
3311;SDS011;1668;49.648;8.570;2023-03-05T01:57:54;49.83;;;22.80;;
3311;SDS011;1668;49.648;8.570;2023-03-05T02:00:24;45.63;;;20.60;;
3311;SDS011;1668;49.648;8.570;2023-03-05T02:02:54;41.20;;;19.90;;
3311;SDS011;1668;49.648;8.570;2023-03-05T02:05:24;38.97;;;19.23;;
3311;SDS011;1668;49.648;8.570;2023-03-05T02:07:54;40.73;;;18.87;;
3311;SDS011;1668;49.648;8.570;2023-03-05T02:10:22;41.30;;;18.97;;
3311;SDS011;1668;49.648;8.570;2023-03-05T02:12:53;36.37;;;17.70;;
3311;SDS011;1668;49.648;8.570;2023-03-05T02:15:23;39.63;;;17.97;;
3311;SDS011;1668;49.648;8.570;2023-03-05T02:17:50;37.47;;;18.50;;
3311;SDS011;1668;49.648;8.570;2023-03-05T02:20:18;36.20;;;17.03;;
3311;SDS011;1668;49.648;8.570;2023-03-05T02:22:47;36.37;;;17.20;;
3311;SDS011;1668;49.648;8.570;2023-03-05T02:25:15;34.43;;;16.67;;
3311;SDS011;1668;49.648;8.570;2023-03-05T02:27:45;37.17;;;17.73;;
3311;SDS011;1668;49.648;8.570;2023-03-05T02:30:17;33.60;;;16.10;;
3311;SDS011;1668;49.648;8.570;2023-03-05T02:32:45;36.00;;;16.80;;
3311;SDS011;1668;49.648;8.570;2023-03-05T02:35:11;44.33;;;17.90;;
3311;SDS011;1668;49.648;8.570;2023-03-05T02:37:38;33.03;;;15.17;;
3311;SDS011;1668;49.648;8.570;2023-03-05T02:40:08;39.63;;;16.50;;
3311;SDS011;1668;49.648;8.570;2023-03-05T02:42:36;34.77;;;17.23;;
3311;SDS011;1668;49.648;8.570;2023-03-05T02:45:03;30.30;;;14.83;;
3311;SDS011;1668;49.648;8.570;2023-03-05T02:47:30;35.63;;;17.53;;
3311;SDS011;1668;49.648;8.570;2023-03-05T02:49:57;33.70;;;15.90;;
3311;SDS011;1668;49.648;8.570;2023-03-05T02:52:24;35.47;;;16.50;;
3311;SDS011;1668;49.648;8.570;2023-03-05T02:54:52;37.07;;;18.00;;
3311;SDS011;1668;49.648;8.570;2023-03-05T02:57:20;38.70;;;17.27;;
3311;SDS011;1668;49.648;8.570;2023-03-05T02:59:47;34.20;;;16.97;;
3311;SDS011;1668;49.648;8.570;2023-03-05T03:02:14;37.97;;;16.93;;
3311;SDS011;1668;49.648;8.570;2023-03-05T03:04:42;32.23;;;16.20;;
3311;SDS011;1668;49.648;8.570;2023-03-05T03:07:09;38.60;;;17.50;;
3311;SDS011;1668;49.648;8.570;2023-03-05T03:09:36;30.77;;;15.37;;
3311;SDS011;1668;49.648;8.570;2023-03-05T03:12:04;36.27;;;16.37;;
3311;SDS011;1668;49.648;8.570;2023-03-05T03:14:34;39.13;;;16.20;;
3311;SDS011;1668;49.648;8.570;2023-03-05T03:17:03;34.23;;;15.47;;
3311;SDS011;1668;49.648;8.570;2023-03-05T03:19:31;35.40;;;15.67;;
3311;SDS011;1668;49.648;8.570;2023-03-05T03:21:58;36.90;;;15.13;;
3311;SDS011;1668;49.648;8.570;2023-03-05T03:24:24;30.00;;;14.47;;
3311;SDS011;1668;49.648;8.570;2023-03-05T03:26:52;33.93;;;16.63;;
3311;SDS011;1668;49.648;8.570;2023-03-05T03:29:18;32.23;;;15.83;;
3311;SDS011;1668;49.648;8.570;2023-03-05T03:31:47;36.03;;;15.70;;
3311;SDS011;1668;49.648;8.570;2023-03-05T03:34:14;33.73;;;15.10;;
3311;SDS011;1668;49.648;8.570;2023-03-05T03:36:42;36.43;;;16.83;;
3311;SDS011;1668;49.648;8.570;2023-03-05T03:39:09;38.90;;;17.13;;
3311;SDS011;1668;49.648;8.570;2023-03-05T03:41:39;32.67;;;15.13;;
3311;SDS011;1668;49.648;8.570;2023-03-05T03:44:07;32.67;;;15.60;;
3311;SDS011;1668;49.648;8.570;2023-03-05T03:46:35;36.23;;;16.17;;
3311;SDS011;1668;49.648;8.570;2023-03-05T03:49:03;32.23;;;15.73;;
3311;SDS011;1668;49.648;8.570;2023-03-05T03:51:30;29.60;;;14.30;;
3311;SDS011;1668;49.648;8.570;2023-03-05T03:53:57;29.87;;;14.90;;
3311;SDS011;1668;49.648;8.570;2023-03-05T03:56:24;31.97;;;15.00;;
3311;SDS011;1668;49.648;8.570;2023-03-05T03:58:52;32.40;;;14.60;;
3311;SDS011;1668;49.648;8.570;2023-03-05T04:01:19;31.93;;;15.50;;
3311;SDS011;1668;49.648;8.570;2023-03-05T04:03:47;30.87;;;14.53;;
3311;SDS011;1668;49.648;8.570;2023-03-05T04:06:15;38.60;;;16.03;;
3311;SDS011;1668;49.648;8.570;2023-03-05T04:08:43;35.60;;;15.50;;
3311;SDS011;1668;49.648;8.570;2023-03-05T04:11:10;36.40;;;14.83;;
3311;SDS011;1668;49.648;8.570;2023-03-05T04:13:37;38.70;;;15.70;;
3311;SDS011;1668;49.648;8.570;2023-03-05T04:16:04;31.00;;;15.40;;
3311;SDS011;1668;49.648;8.570;2023-03-05T04:18:31;28.53;;;14.67;;
3311;SDS011;1668;49.648;8.570;2023-03-05T04:20:58;36.50;;;15.43;;
3311;SDS011;1668;49.648;8.570;2023-03-05T04:23:27;38.40;;;16.20;;
3311;SDS011;1668;49.648;8.570;2023-03-05T04:25:54;33.77;;;15.30;;
3311;SDS011;1668;49.648;8.570;2023-03-05T04:28:20;33.77;;;15.27;;
3311;SDS011;1668;49.648;8.570;2023-03-05T04:30:47;34.33;;;15.93;;
3311;SDS011;1668;49.648;8.570;2023-03-05T04:33:14;34.40;;;16.40;;
3311;SDS011;1668;49.648;8.570;2023-03-05T04:35:41;33.80;;;14.77;;
3311;SDS011;1668;49.648;8.570;2023-03-05T04:38:09;35.97;;;16.00;;
3311;SDS011;1668;49.648;8.570;2023-03-05T04:40:37;33.63;;;15.60;;
3311;SDS011;1668;49.648;8.570;2023-03-05T04:43:05;32.80;;;15.23;;
3311;SDS011;1668;49.648;8.570;2023-03-05T04:45:32;39.20;;;15.93;;
3311;SDS011;1668;49.648;8.570;2023-03-05T04:47:59;31.90;;;14.97;;
3311;SDS011;1668;49.648;8.570;2023-03-05T04:50:26;32.67;;;16.07;;
3311;SDS011;1668;49.648;8.570;2023-03-05T04:52:53;36.47;;;16.90;;
3311;SDS011;1668;49.648;8.570;2023-03-05T04:55:20;29.73;;;14.80;;
3311;SDS011;1668;49.648;8.570;2023-03-05T04:57:48;31.87;;;16.40;;
3311;SDS011;1668;49.648;8.570;2023-03-05T05:00:15;34.40;;;16.20;;
3311;SDS011;1668;49.648;8.570;2023-03-05T05:02:43;35.00;;;15.50;;
3311;SDS011;1668;49.648;8.570;2023-03-05T05:05:11;33.47;;;15.97;;
3311;SDS011;1668;49.648;8.570;2023-03-05T05:07:40;29.80;;;14.80;;
3311;SDS011;1668;49.648;8.570;2023-03-05T05:10:07;34.57;;;15.33;;
3311;SDS011;1668;49.648;8.570;2023-03-05T05:12:35;32.53;;;15.10;;
3311;SDS011;1668;49.648;8.570;2023-03-05T05:15:04;28.63;;;14.67;;
3311;SDS011;1668;49.648;8.570;2023-03-05T05:17:32;28.53;;;14.60;;
3311;SDS011;1668;49.648;8.570;2023-03-05T05:19:59;36.10;;;15.07;;
3311;SDS011;1668;49.648;8.570;2023-03-05T05:22:28;33.10;;;16.43;;
3311;SDS011;1668;49.648;8.570;2023-03-05T05:24:55;36.77;;;16.40;;
3311;SDS011;1668;49.648;8.570;2023-03-05T05:27:22;32.00;;;15.20;;
3311;SDS011;1668;49.648;8.570;2023-03-05T05:29:49;31.43;;;15.27;;
3311;SDS011;1668;49.648;8.570;2023-03-05T05:32:18;32.10;;;14.87;;
3311;SDS011;1668;49.648;8.570;2023-03-05T05:34:46;32.47;;;15.70;;
3311;SDS011;1668;49.648;8.570;2023-03-05T05:37:13;30.03;;;14.83;;
3311;SDS011;1668;49.648;8.570;2023-03-05T05:39:40;26.37;;;14.70;;
3311;SDS011;1668;49.648;8.570;2023-03-05T05:42:14;32.00;;;15.00;;
3311;SDS011;1668;49.648;8.570;2023-03-05T05:44:41;31.20;;;15.70;;
3311;SDS011;1668;49.648;8.570;2023-03-05T05:47:08;38.60;;;14.77;;
3311;SDS011;1668;49.648;8.570;2023-03-05T05:49:36;34.50;;;14.43;;
3311;SDS011;1668;49.648;8.570;2023-03-05T05:52:03;31.43;;;15.07;;
3311;SDS011;1668;49.648;8.570;2023-03-05T05:54:30;30.60;;;14.63;;
3311;SDS011;1668;49.648;8.570;2023-03-05T05:56:57;30.33;;;15.50;;
3311;SDS011;1668;49.648;8.570;2023-03-05T05:59:24;31.73;;;14.97;;
3311;SDS011;1668;49.648;8.570;2023-03-05T06:01:51;29.80;;;14.90;;
3311;SDS011;1668;49.648;8.570;2023-03-05T06:04:18;38.00;;;16.17;;
3311;SDS011;1668;49.648;8.570;2023-03-05T06:06:46;33.07;;;15.13;;
3311;SDS011;1668;49.648;8.570;2023-03-05T06:09:13;41.87;;;16.93;;
3311;SDS011;1668;49.648;8.570;2023-03-05T06:11:40;33.73;;;15.10;;
3311;SDS011;1668;49.648;8.570;2023-03-05T06:14:08;35.10;;;15.80;;
3311;SDS011;1668;49.648;8.570;2023-03-05T06:16:36;34.53;;;16.10;;
3311;SDS011;1668;49.648;8.570;2023-03-05T06:19:03;35.63;;;15.63;;
3311;SDS011;1668;49.648;8.570;2023-03-05T06:21:30;31.30;;;15.50;;
3311;SDS011;1668;49.648;8.570;2023-03-05T06:23:59;28.13;;;14.73;;
3311;SDS011;1668;49.648;8.570;2023-03-05T06:26:26;30.23;;;15.27;;
3311;SDS011;1668;49.648;8.570;2023-03-05T06:28:53;34.57;;;16.37;;
3311;SDS011;1668;49.648;8.570;2023-03-05T06:31:20;31.37;;;16.00;;
3311;SDS011;1668;49.648;8.570;2023-03-05T06:33:49;33.57;;;16.50;;
3311;SDS011;1668;49.648;8.570;2023-03-05T06:36:17;34.93;;;14.77;;
3311;SDS011;1668;49.648;8.570;2023-03-05T06:38:45;30.40;;;15.53;;
3311;SDS011;1668;49.648;8.570;2023-03-05T06:41:14;31.83;;;14.90;;
3311;SDS011;1668;49.648;8.570;2023-03-05T06:43:43;30.80;;;16.10;;
3311;SDS011;1668;49.648;8.570;2023-03-05T06:46:12;31.63;;;15.03;;
3311;SDS011;1668;49.648;8.570;2023-03-05T06:48:40;30.60;;;15.30;;
3311;SDS011;1668;49.648;8.570;2023-03-05T06:51:11;36.83;;;15.53;;
3311;SDS011;1668;49.648;8.570;2023-03-05T06:53:39;31.53;;;14.70;;
3311;SDS011;1668;49.648;8.570;2023-03-05T06:56:06;32.90;;;16.37;;
3311;SDS011;1668;49.648;8.570;2023-03-05T06:58:34;31.47;;;14.87;;
3311;SDS011;1668;49.648;8.570;2023-03-05T07:01:03;30.43;;;15.87;;
3311;SDS011;1668;49.648;8.570;2023-03-05T07:03:31;27.83;;;14.47;;
3311;SDS011;1668;49.648;8.570;2023-03-05T07:06:00;33.33;;;14.47;;
3311;SDS011;1668;49.648;8.570;2023-03-05T07:08:28;31.60;;;15.13;;
3311;SDS011;1668;49.648;8.570;2023-03-05T07:10:55;28.83;;;14.53;;
3311;SDS011;1668;49.648;8.570;2023-03-05T07:13:22;34.50;;;15.53;;
3311;SDS011;1668;49.648;8.570;2023-03-05T07:15:50;33.00;;;16.23;;
3311;SDS011;1668;49.648;8.570;2023-03-05T07:18:17;31.73;;;16.27;;
3311;SDS011;1668;49.648;8.570;2023-03-05T07:20:44;32.83;;;15.33;;
3311;SDS011;1668;49.648;8.570;2023-03-05T07:23:12;33.90;;;16.50;;
3311;SDS011;1668;49.648;8.570;2023-03-05T07:25:39;31.17;;;15.90;;
3311;SDS011;1668;49.648;8.570;2023-03-05T07:28:06;38.10;;;17.47;;
3311;SDS011;1668;49.648;8.570;2023-03-05T07:30:35;34.67;;;16.50;;
3311;SDS011;1668;49.648;8.570;2023-03-05T07:33:03;34.27;;;16.80;;
3311;SDS011;1668;49.648;8.570;2023-03-05T07:35:30;37.63;;;16.87;;
3311;SDS011;1668;49.648;8.570;2023-03-05T07:37:57;39.00;;;18.20;;
3311;SDS011;1668;49.648;8.570;2023-03-05T07:40:23;38.90;;;19.73;;
3311;SDS011;1668;49.648;8.570;2023-03-05T07:42:50;42.90;;;19.73;;
3311;SDS011;1668;49.648;8.570;2023-03-05T07:45:18;40.37;;;20.00;;
3311;SDS011;1668;49.648;8.570;2023-03-05T07:47:45;37.57;;;19.50;;
3311;SDS011;1668;49.648;8.570;2023-03-05T07:50:13;32.93;;;18.73;;
3311;SDS011;1668;49.648;8.570;2023-03-05T07:52:40;35.80;;;19.03;;
3311;SDS011;1668;49.648;8.570;2023-03-05T07:55:07;42.60;;;19.83;;
3311;SDS011;1668;49.648;8.570;2023-03-05T07:57:35;37.60;;;17.43;;
3311;SDS011;1668;49.648;8.570;2023-03-05T08:00:03;31.37;;;15.70;;
3311;SDS011;1668;49.648;8.570;2023-03-05T08:02:31;30.93;;;17.00;;
3311;SDS011;1668;49.648;8.570;2023-03-05T08:04:58;31.60;;;17.10;;
3311;SDS011;1668;49.648;8.570;2023-03-05T08:07:27;36.87;;;17.60;;
3311;SDS011;1668;49.648;8.570;2023-03-05T08:09:53;30.20;;;17.03;;
3311;SDS011;1668;49.648;8.570;2023-03-05T08:12:21;37.33;;;19.00;;
3311;SDS011;1668;49.648;8.570;2023-03-05T08:14:48;33.27;;;18.47;;
3311;SDS011;1668;49.648;8.570;2023-03-05T08:17:15;32.30;;;17.73;;
3311;SDS011;1668;49.648;8.570;2023-03-05T08:19:42;32.67;;;17.30;;
3311;SDS011;1668;49.648;8.570;2023-03-05T08:22:09;24.80;;;14.60;;
3311;SDS011;1668;49.648;8.570;2023-03-05T08:24:37;27.90;;;15.47;;
3311;SDS011;1668;49.648;8.570;2023-03-05T08:27:04;26.17;;;16.00;;
3311;SDS011;1668;49.648;8.570;2023-03-05T08:29:31;28.17;;;15.60;;
3311;SDS011;1668;49.648;8.570;2023-03-05T08:31:58;29.73;;;15.50;;
3311;SDS011;1668;49.648;8.570;2023-03-05T08:34:25;28.00;;;13.93;;
3311;SDS011;1668;49.648;8.570;2023-03-05T08:36:52;17.97;;;11.17;;
3311;SDS011;1668;49.648;8.570;2023-03-05T08:39:19;19.80;;;11.57;;
3311;SDS011;1668;49.648;8.570;2023-03-05T08:41:48;17.93;;;10.20;;
3311;SDS011;1668;49.648;8.570;2023-03-05T08:44:14;17.97;;;10.10;;
3311;SDS011;1668;49.648;8.570;2023-03-05T08:46:42;20.47;;;10.57;;
3311;SDS011;1668;49.648;8.570;2023-03-05T08:49:08;18.53;;;10.40;;
3311;SDS011;1668;49.648;8.570;2023-03-05T08:51:35;20.07;;;10.87;;
3311;SDS011;1668;49.648;8.570;2023-03-05T08:54:03;16.07;;;9.60;;
3311;SDS011;1668;49.648;8.570;2023-03-05T08:56:31;19.70;;;10.60;;
3311;SDS011;1668;49.648;8.570;2023-03-05T08:59:00;20.20;;;11.23;;
3311;SDS011;1668;49.648;8.570;2023-03-05T09:01:28;25.20;;;12.60;;
3311;SDS011;1668;49.648;8.570;2023-03-05T09:03:56;14.43;;;8.00;;
3311;SDS011;1668;49.648;8.570;2023-03-05T09:06:23;12.00;;;7.70;;
3311;SDS011;1668;49.648;8.570;2023-03-05T09:08:51;13.27;;;6.83;;
3311;SDS011;1668;49.648;8.570;2023-03-05T09:11:18;14.77;;;7.60;;
3311;SDS011;1668;49.648;8.570;2023-03-05T09:13:46;15.27;;;7.80;;
3311;SDS011;1668;49.648;8.570;2023-03-05T09:16:15;13.07;;;6.40;;
3311;SDS011;1668;49.648;8.570;2023-03-05T09:18:44;12.23;;;6.53;;
3311;SDS011;1668;49.648;8.570;2023-03-05T09:21:12;10.33;;;5.77;;
3311;SDS011;1668;49.648;8.570;2023-03-05T09:23:40;11.70;;;6.30;;
3311;SDS011;1668;49.648;8.570;2023-03-05T09:26:08;11.30;;;5.90;;
3311;SDS011;1668;49.648;8.570;2023-03-05T09:28:37;12.33;;;5.93;;
3311;SDS011;1668;49.648;8.570;2023-03-05T09:31:05;11.70;;;5.80;;
3311;SDS011;1668;49.648;8.570;2023-03-05T09:33:34;14.27;;;6.60;;
3311;SDS011;1668;49.648;8.570;2023-03-05T09:36:02;17.77;;;7.47;;
3311;SDS011;1668;49.648;8.570;2023-03-05T09:38:32;11.50;;;5.17;;
3311;SDS011;1668;49.648;8.570;2023-03-05T09:41:02;9.07;;;5.37;;
3311;SDS011;1668;49.648;8.570;2023-03-05T09:43:35;14.40;;;6.87;;
3311;SDS011;1668;49.648;8.570;2023-03-05T09:46:13;11.77;;;6.07;;
3311;SDS011;1668;49.648;8.570;2023-03-05T09:48:50;9.90;;;5.60;;
3311;SDS011;1668;49.648;8.570;2023-03-05T09:51:21;10.60;;;5.73;;
3311;SDS011;1668;49.648;8.570;2023-03-05T09:53:52;11.00;;;5.53;;
3311;SDS011;1668;49.648;8.570;2023-03-05T09:56:27;14.17;;;5.53;;
3311;SDS011;1668;49.648;8.570;2023-03-05T09:58:58;14.83;;;5.47;;
3311;SDS011;1668;49.648;8.570;2023-03-05T10:01:29;9.83;;;5.50;;
3311;SDS011;1668;49.648;8.570;2023-03-05T10:04:05;13.00;;;7.60;;
3311;SDS011;1668;49.648;8.570;2023-03-05T10:06:38;10.20;;;5.73;;
3311;SDS011;1668;49.648;8.570;2023-03-05T10:09:13;11.20;;;5.40;;
3311;SDS011;1668;49.648;8.570;2023-03-05T10:11:48;10.57;;;5.53;;
3311;SDS011;1668;49.648;8.570;2023-03-05T10:14:22;12.50;;;6.03;;
3311;SDS011;1668;49.648;8.570;2023-03-05T10:16:59;9.60;;;5.97;;
3311;SDS011;1668;49.648;8.570;2023-03-05T10:19:46;9.23;;;5.13;;
3311;SDS011;1668;49.648;8.570;2023-03-05T10:22:47;12.57;;;5.80;;
3311;SDS011;1668;49.648;8.570;2023-03-05T10:25:32;12.50;;;4.80;;
3311;SDS011;1668;49.648;8.570;2023-03-05T10:28:13;10.07;;;5.20;;
3311;SDS011;1668;49.648;8.570;2023-03-05T10:30:49;10.87;;;5.40;;
3311;SDS011;1668;49.648;8.570;2023-03-05T10:33:29;11.30;;;6.03;;
3311;SDS011;1668;49.648;8.570;2023-03-05T10:36:19;8.70;;;4.80;;
3311;SDS011;1668;49.648;8.570;2023-03-05T10:42:01;11.60;;;5.70;;
3311;SDS011;1668;49.648;8.570;2023-03-05T10:44:35;7.90;;;4.83;;
3311;SDS011;1668;49.648;8.570;2023-03-05T10:47:10;10.73;;;5.20;;
3311;SDS011;1668;49.648;8.570;2023-03-05T10:49:43;10.10;;;4.90;;
3311;SDS011;1668;49.648;8.570;2023-03-05T10:52:18;10.63;;;5.20;;
3311;SDS011;1668;49.648;8.570;2023-03-05T10:54:49;9.83;;;5.10;;
3311;SDS011;1668;49.648;8.570;2023-03-05T10:57:16;9.53;;;5.40;;
3311;SDS011;1668;49.648;8.570;2023-03-05T10:59:46;12.67;;;5.50;;
3311;SDS011;1668;49.648;8.570;2023-03-05T11:02:15;9.80;;;5.20;;
3311;SDS011;1668;49.648;8.570;2023-03-05T11:04:43;9.30;;;4.90;;
3311;SDS011;1668;49.648;8.570;2023-03-05T11:10:12;8.80;;;5.30;;
3311;SDS011;1668;49.648;8.570;2023-03-05T11:12:42;10.90;;;5.87;;
3311;SDS011;1668;49.648;8.570;2023-03-05T11:15:20;11.17;;;5.80;;
3311;SDS011;1668;49.648;8.570;2023-03-05T11:20:49;12.93;;;6.10;;
3311;SDS011;1668;49.648;8.570;2023-03-05T11:23:18;12.90;;;6.20;;
3311;SDS011;1668;49.648;8.570;2023-03-05T11:25:52;9.60;;;4.87;;
3311;SDS011;1668;49.648;8.570;2023-03-05T11:28:26;9.90;;;5.23;;
3311;SDS011;1668;49.648;8.570;2023-03-05T11:30:56;9.87;;;5.67;;
3311;SDS011;1668;49.648;8.570;2023-03-05T11:33:26;11.97;;;5.87;;
3311;SDS011;1668;49.648;8.570;2023-03-05T11:36:09;12.73;;;5.30;;
3311;SDS011;1668;49.648;8.570;2023-03-05T11:38:50;8.20;;;4.10;;
3311;SDS011;1668;49.648;8.570;2023-03-05T11:41:19;10.23;;;4.67;;
3311;SDS011;1668;49.648;8.570;2023-03-05T11:43:52;10.57;;;5.27;;
3311;SDS011;1668;49.648;8.570;2023-03-05T11:46:20;10.77;;;5.47;;
3311;SDS011;1668;49.648;8.570;2023-03-05T11:48:47;11.30;;;5.60;;
3311;SDS011;1668;49.648;8.570;2023-03-05T11:51:16;8.20;;;4.47;;
3311;SDS011;1668;49.648;8.570;2023-03-05T11:53:50;9.53;;;4.30;;
3311;SDS011;1668;49.648;8.570;2023-03-05T11:56:23;7.90;;;4.37;;
3311;SDS011;1668;49.648;8.570;2023-03-05T11:58:53;7.10;;;4.40;;
3311;SDS011;1668;49.648;8.570;2023-03-05T12:01:26;8.93;;;4.43;;
3311;SDS011;1668;49.648;8.570;2023-03-05T12:03:56;8.03;;;4.47;;
3311;SDS011;1668;49.648;8.570;2023-03-05T12:06:26;9.07;;;4.93;;
3311;SDS011;1668;49.648;8.570;2023-03-05T12:09:00;8.90;;;4.83;;
3311;SDS011;1668;49.648;8.570;2023-03-05T12:11:35;9.20;;;5.03;;
3311;SDS011;1668;49.648;8.570;2023-03-05T12:14:04;10.80;;;4.97;;
3311;SDS011;1668;49.648;8.570;2023-03-05T12:16:36;10.10;;;5.40;;
3311;SDS011;1668;49.648;8.570;2023-03-05T12:19:25;12.00;;;5.17;;
3311;SDS011;1668;49.648;8.570;2023-03-05T12:22:04;7.30;;;4.73;;
3311;SDS011;1668;49.648;8.570;2023-03-05T12:24:43;9.77;;;5.33;;
3311;SDS011;1668;49.648;8.570;2023-03-05T12:27:11;10.73;;;5.00;;
3311;SDS011;1668;49.648;8.570;2023-03-05T12:29:41;10.93;;;5.77;;
3311;SDS011;1668;49.648;8.570;2023-03-05T12:35:27;10.60;;;5.07;;
3311;SDS011;1668;49.648;8.570;2023-03-05T12:38:02;7.77;;;4.77;;
3311;SDS011;1668;49.648;8.570;2023-03-05T12:44:18;11.70;;;5.97;;
3311;SDS011;1668;49.648;8.570;2023-03-05T12:49:47;11.63;;;5.17;;
3311;SDS011;1668;49.648;8.570;2023-03-05T12:55:14;9.40;;;4.80;;
3311;SDS011;1668;49.648;8.570;2023-03-05T12:57:45;11.10;;;5.10;;
3311;SDS011;1668;49.648;8.570;2023-03-05T13:00:17;8.13;;;4.50;;
3311;SDS011;1668;49.648;8.570;2023-03-05T13:02:51;13.33;;;8.07;;
3311;SDS011;1668;49.648;8.570;2023-03-05T13:05:23;9.30;;;6.07;;
3311;SDS011;1668;49.648;8.570;2023-03-05T13:07:53;9.17;;;5.40;;
3311;SDS011;1668;49.648;8.570;2023-03-05T13:10:35;12.27;;;5.10;;
3311;SDS011;1668;49.648;8.570;2023-03-05T13:13:02;11.67;;;7.03;;
3311;SDS011;1668;49.648;8.570;2023-03-05T13:15:30;13.13;;;8.83;;
3311;SDS011;1668;49.648;8.570;2023-03-05T13:17:58;12.03;;;7.40;;
3311;SDS011;1668;49.648;8.570;2023-03-05T13:20:29;14.23;;;7.20;;
3311;SDS011;1668;49.648;8.570;2023-03-05T13:23:12;8.80;;;5.37;;
3311;SDS011;1668;49.648;8.570;2023-03-05T13:25:41;13.80;;;8.43;;
3311;SDS011;1668;49.648;8.570;2023-03-05T13:28:10;17.17;;;10.03;;
3311;SDS011;1668;49.648;8.570;2023-03-05T13:30:41;14.80;;;9.10;;
3311;SDS011;1668;49.648;8.570;2023-03-05T13:33:12;33.50;;;21.27;;
3311;SDS011;1668;49.648;8.570;2023-03-05T13:35:44;46.13;;;25.10;;
3311;SDS011;1668;49.648;8.570;2023-03-05T13:38:19;79.17;;;41.43;;
3311;SDS011;1668;49.648;8.570;2023-03-05T13:41:00;63.10;;;33.00;;
3311;SDS011;1668;49.648;8.570;2023-03-05T13:43:32;49.90;;;26.90;;
3311;SDS011;1668;49.648;8.570;2023-03-05T13:46:00;62.77;;;33.43;;
3311;SDS011;1668;49.648;8.570;2023-03-05T13:48:27;13.83;;;6.80;;
3311;SDS011;1668;49.648;8.570;2023-03-05T13:50:54;13.03;;;8.20;;
3311;SDS011;1668;49.648;8.570;2023-03-05T13:53:23;11.67;;;7.00;;
3311;SDS011;1668;49.648;8.570;2023-03-05T13:55:52;14.30;;;8.57;;
3311;SDS011;1668;49.648;8.570;2023-03-05T14:01:14;14.37;;;7.80;;
3311;SDS011;1668;49.648;8.570;2023-03-05T14:03:50;10.67;;;6.00;;
3311;SDS011;1668;49.648;8.570;2023-03-05T14:06:18;12.57;;;8.27;;
3311;SDS011;1668;49.648;8.570;2023-03-05T14:08:48;11.30;;;5.80;;
3311;SDS011;1668;49.648;8.570;2023-03-05T14:11:17;8.30;;;4.67;;
3311;SDS011;1668;49.648;8.570;2023-03-05T14:13:45;9.77;;;4.87;;
3311;SDS011;1668;49.648;8.570;2023-03-05T14:16:22;7.40;;;4.50;;
3311;SDS011;1668;49.648;8.570;2023-03-05T14:18:53;8.13;;;4.90;;
3311;SDS011;1668;49.648;8.570;2023-03-05T14:21:22;11.70;;;5.47;;
3311;SDS011;1668;49.648;8.570;2023-03-05T14:23:49;10.67;;;4.93;;
3311;SDS011;1668;49.648;8.570;2023-03-05T14:26:23;9.90;;;4.83;;
3311;SDS011;1668;49.648;8.570;2023-03-05T14:28:56;7.60;;;4.40;;
3311;SDS011;1668;49.648;8.570;2023-03-05T14:31:27;7.77;;;4.80;;
3311;SDS011;1668;49.648;8.570;2023-03-05T14:33:59;9.83;;;4.80;;
3311;SDS011;1668;49.648;8.570;2023-03-05T14:36:29;9.40;;;5.00;;
3311;SDS011;1668;49.648;8.570;2023-03-05T14:38:57;9.67;;;5.33;;
3311;SDS011;1668;49.648;8.570;2023-03-05T14:41:32;13.60;;;5.47;;
3311;SDS011;1668;49.648;8.570;2023-03-05T14:44:04;9.30;;;4.70;;
3311;SDS011;1668;49.648;8.570;2023-03-05T14:46:37;11.50;;;5.47;;
3311;SDS011;1668;49.648;8.570;2023-03-05T14:49:04;17.30;;;6.60;;
3311;SDS011;1668;49.648;8.570;2023-03-05T14:51:32;13.83;;;6.10;;
3311;SDS011;1668;49.648;8.570;2023-03-05T14:54:03;10.50;;;5.03;;
3311;SDS011;1668;49.648;8.570;2023-03-05T14:56:30;8.10;;;4.93;;
3311;SDS011;1668;49.648;8.570;2023-03-05T14:58:57;8.83;;;5.23;;
3311;SDS011;1668;49.648;8.570;2023-03-05T15:01:24;14.67;;;5.53;;
3311;SDS011;1668;49.648;8.570;2023-03-05T15:03:53;11.47;;;7.07;;
3311;SDS011;1668;49.648;8.570;2023-03-05T15:06:20;11.90;;;6.17;;
3311;SDS011;1668;49.648;8.570;2023-03-05T15:08:52;8.53;;;4.80;;
3311;SDS011;1668;49.648;8.570;2023-03-05T15:11:19;7.90;;;4.50;;
3311;SDS011;1668;49.648;8.570;2023-03-05T15:13:47;8.40;;;4.40;;
3311;SDS011;1668;49.648;8.570;2023-03-05T15:16:14;10.10;;;4.90;;
3311;SDS011;1668;49.648;8.570;2023-03-05T15:18:43;10.67;;;5.27;;
3311;SDS011;1668;49.648;8.570;2023-03-05T15:21:12;8.47;;;5.80;;
3311;SDS011;1668;49.648;8.570;2023-03-05T15:23:38;9.20;;;4.97;;
3311;SDS011;1668;49.648;8.570;2023-03-05T15:26:06;9.20;;;4.50;;
3311;SDS011;1668;49.648;8.570;2023-03-05T15:28:36;8.50;;;5.13;;
3311;SDS011;1668;49.648;8.570;2023-03-05T15:31:05;11.53;;;5.63;;
3311;SDS011;1668;49.648;8.570;2023-03-05T15:33:32;7.70;;;4.10;;